Terminal Aerodrome Forecast
Issued by NWS Grand Junction, CO

Home | Current Version | Previous Version | Text Only | Print | Product List | Glossary On
Versions: 1 2 3 4 5 6 7 8 9 10 11 12 13 14 15
000
FTUS45 KGJT 200520
TAFGJT
TAF
KGJT 200520Z 2006/2106 36003KT P6SM SCT150
     FM200900 13008KT P6SM FEW250
     FM201900 23005KT P6SM FEW250
     FM202200 28009KT P6SM FEW110 SCT150
     FM210200 17005KT P6SM SCT200=

USA.gov is the U.S. government's official web portal to all federal, state and local government web resources and services.